Time;durP1;ratioP1;P1;durP2;ratioP2;P2;SDS_P1;SDS_P2;PMS_P1;PMS_P2;Temp;Humidity;BMP_temperature;BMP_pressure;BME280_temperature;BME280_humidity;BME280_pressure;Samples;Min_cycle;Max_cycle;Signal;HPM_P1;HPM_P2
2020/12/11 00:00:29;;;;;;;37.47;17.75;;;1.90;87.40;;;;;;5055650;28;20474;-69
2020/12/11 00:02:55;;;;;;;40.70;17.63;;;1.80;87.30;;;;;;5055196;28;20049;-67
2020/12/11 00:05:21;;;;;;;31.02;15.90;;;1.90;87.30;;;;;;5055495;28;20029;-67
2020/12/11 00:07:47;;;;;;;41.95;19.90;;;1.80;87.20;;;;;;5055204;28;20017;-67
2020/12/11 00:10:14;;;;;;;35.85;17.73;;;1.80;87.20;;;;;;5055660;28;20380;-68
2020/12/11 00:12:40;;;;;;;37.22;17.63;;;1.80;87.20;;;;;;5055019;28;20116;-67
2020/12/11 00:15:08;;;;;;;40.15;18.80;;;1.80;87.20;;;;;;5055277;28;20025;-66
2020/12/11 00:17:34;;;;;;;57.20;24.10;;;1.80;87.30;;;;;;5055538;28;20406;-66
2020/12/11 00:20:00;;;;;;;43.55;20.73;;;1.70;87.20;;;;;;5054143;28;20031;-66
2020/12/11 00:22:26;;;;;;;52.65;20.55;;;1.70;87.20;;;;;;5055492;28;20025;-66
2020/12/11 00:24:52;;;;;;;39.72;17.05;;;1.70;87.30;;;;;;5054670;28;20421;-66
2020/12/11 00:27:18;;;;;;;32.17;16.73;;;1.70;87.40;;;;;;5053751;28;20079;-66
2020/12/11 00:29:47;;;;;;;32.25;15.07;;;1.70;87.30;;;;;;5053496;28;20029;-66
2020/12/11 00:32:13;;;;;;;33.13;15.20;;;1.70;87.40;;;;;;5055208;28;20049;-67
2020/12/11 00:34:39;;;;;;;34.78;16.38;;;1.70;87.40;;;;;;5055306;28;20426;-66
2020/12/11 00:37:05;;;;;;;25.55;13.73;;;1.70;87.40;;;;;;5053597;28;20680;-66
2020/12/11 00:39:31;;;;;;;32.72;14.30;;;1.60;87.30;;;;;;5055051;28;20079;-67
2020/12/11 00:41:57;;;;;;;29.33;14.43;;;1.60;87.30;;;;;;5054667;28;20514;-67
2020/12/11 00:44:23;;;;;;;31.40;15.30;;;1.60;87.30;;;;;;5054826;28;20100;-66
2020/12/11 00:46:49;;;;;;;34.15;16.98;;;1.60;87.40;;;;;;5053494;28;20048;-65
2020/12/11 00:49:15;;;;;;;40.25;18.25;;;1.60;87.30;;;;;;5054546;28;20116;-66
2020/12/11 00:51:41;;;;;;;32.53;15.68;;;1.60;87.40;;;;;;5053499;28;20483;-66
2020/12/11 00:54:06;;;;;;;33.75;17.25;;;1.60;87.50;;;;;;5054583;28;20031;-66
2020/12/11 00:56:32;;;;;;;42.35;18.25;;;1.70;87.50;;;;;;5054790;28;20017;-65
2020/12/11 00:58:58;;;;;;;47.55;23.27;;;1.60;87.40;;;;;;5053953;28;20025;-66
2020/12/11 01:01:24;;;;;;;37.75;15.85;;;1.70;87.30;;;;;;5054705;28;20040;-66
2020/12/11 01:03:49;;;;;;;40.40;18.25;;;1.70;87.30;;;;;;5054779;28;20053;-66
2020/12/11 01:06:15;;;;;;;46.00;20.27;;;1.70;87.10;;;;;;5054416;28;20040;-66
2020/12/11 01:08:41;;;;;;;30.77;15.13;;;1.60;87.10;;;;;;5054070;28;20081;-66
2020/12/11 01:11:07;;;;;;;29.85;14.95;;;1.60;87.10;;;;;;5054004;28;20032;-67
2020/12/11 01:13:32;;;;;;;37.55;21.05;;;1.60;87.60;;;;;;5052885;28;20463;-66
2020/12/11 01:16:12;;;;;;;32.92;17.15;;;1.60;87.00;;;;;;5039165;28;20103;-67
2020/12/11 01:19:04;;;;;;;30.50;15.80;;;1.60;86.70;;;;;;5042861;28;20044;-68
2020/12/11 01:21:30;;;;;;;33.13;17.13;;;1.60;86.80;;;;;;5048508;28;20029;-67
2020/12/11 01:24:19;;;;;;;36.40;18.23;;;1.60;86.80;;;;;;5043074;28;20075;-67
2020/12/11 01:26:46;;;;;;;32.90;15.52;;;1.60;86.70;;;;;;5052296;28;20039;-67
2020/12/11 01:29:12;;;;;;;29.40;14.65;;;1.50;86.30;;;;;;5054457;28;20515;-67
2020/12/11 01:35:04;;;;;;;29.30;15.27;;;1.50;86.30;;;;;;5026868;28;20399;-67
2020/12/11 01:37:37;;;;;;;33.22;17.02;;;1.40;86.20;;;;;;5039628;28;20365;-67
2020/12/11 01:40:14;;;;;;;32.13;16.48;;;1.40;86.20;;;;;;5039297;28;20033;-67
2020/12/11 01:42:59;;;;;;;25.05;13.50;;;1.30;86.20;;;;;;5039186;28;20033;-67
2020/12/11 01:45:51;;;;;;;25.88;13.32;;;1.30;86.20;;;;;;5053702;28;20029;-66
2020/12/11 01:49:12;;;;;;;26.77;13.18;;;1.30;86.10;;;;;;5053455;28;20036;-66
2020/12/11 01:52:14;;;;;;;30.02;13.00;;;1.20;85.90;;;;;;5053410;28;20067;-67
2020/12/11 01:58:47;;;;;;;;;;;;;;;;;;;;;
2020/12/11 02:01:54;;;;;;;28.85;13.77;;;0.90;86.00;;;;;;5051340;28;20391;-67
2020/12/11 02:05:05;;;;;;;26.97;13.43;;;0.80;86.20;;;;;;5052673;28;20053;-66
2020/12/11 02:07:54;;;;;;;25.85;12.32;;;0.80;86.30;;;;;;5031549;28;20034;-67
2020/12/11 02:10:35;;;;;;;27.35;13.18;;;0.70;86.50;;;;;;5042134;28;20556;-67
2020/12/11 02:13:30;;;;;;;23.98;11.20;;;0.70;86.50;;;;;;5051448;28;20025;-66
2020/12/11 02:15:55;;;;;;;28.10;13.88;;;0.60;86.40;;;;;;5051365;28;20163;-67
2020/12/11 02:18:21;;;;;;;24.23;12.60;;;0.60;86.50;;;;;;5053629;28;20103;-66
2020/12/11 02:20:47;;;;;;;27.67;12.55;;;0.60;86.50;;;;;;5053122;28;20025;-66
2020/12/11 02:23:12;;;;;;;25.77;11.65;;;0.50;86.40;;;;;;5053113;28;20029;-66
2020/12/11 02:25:42;;;;;;;26.95;11.90;;;0.50;86.60;;;;;;5053288;28;20025;-66
2020/12/11 02:28:08;;;;;;;25.92;11.50;;;0.40;86.60;;;;;;5053158;28;20475;-66
2020/12/11 02:30:34;;;;;;;24.00;11.30;;;0.40;86.50;;;;;;5051552;28;20040;-67
2020/12/11 02:32:59;;;;;;;25.88;12.07;;;0.40;86.50;;;;;;5052687;28;20434;-66
2020/12/11 02:35:25;;;;;;;20.33;10.32;;;0.30;86.50;;;;;;5053054;28;20067;-66
2020/12/11 02:37:51;;;;;;;26.00;11.75;;;0.30;86.60;;;;;;5053086;28;20378;-66
2020/12/11 02:40:16;;;;;;;19.90;10.27;;;0.20;86.60;;;;;;5052814;28;20059;-66
2020/12/11 02:42:42;;;;;;;25.55;11.77;;;0.20;86.70;;;;;;5051430;28;20029;-67
2020/12/11 02:45:08;;;;;;;26.38;12.00;;;0.20;86.70;;;;;;5052759;28;20467;-66
2020/12/11 02:47:33;;;;;;;24.13;12.65;;;0.10;86.60;;;;;;5051614;28;20067;-67
2020/12/11 02:50:01;;;;;;;26.75;12.73;;;0.10;86.70;;;;;;5056320;28;20028;-67
2020/12/11 02:52:27;;;;;;;27.13;11.70;;;0.00;86.80;;;;;;5055581;28;20532;-67
2020/12/11 02:54:52;;;;;;;27.05;11.75;;;0.00;86.80;;;;;;5057055;28;20037;-67
2020/12/11 02:57:18;;;;;;;21.23;11.23;;;0.00;86.80;;;;;;5055370;28;20029;-67
2020/12/11 02:59:44;;;;;;;28.80;12.10;;;-0.10;86.90;;;;;;5056792;28;20025;-66
2020/12/11 03:02:10;;;;;;;24.27;11.52;;;-0.10;87.00;;;;;;5055529;28;20035;-66
2020/12/11 03:04:35;;;;;;;23.45;11.27;;;-0.10;87.00;;;;;;5041277;28;20056;-75
2020/12/11 03:07:01;;;;;;;29.33;13.38;;;-0.10;87.10;;;;;;5056902;28;20163;-66
2020/12/11 03:09:27;;;;;;;22.85;10.98;;;-0.10;87.10;;;;;;5053222;28;20022;-66
2020/12/11 03:11:52;;;;;;;28.45;12.50;;;-0.20;87.10;;;;;;5045857;28;20075;-67
2020/12/11 03:14:18;;;;;;;26.05;11.35;;;-0.20;87.70;;;;;;5056311;28;20036;-66
2020/12/11 03:16:44;;;;;;;26.08;11.80;;;-0.20;87.10;;;;;;5056368;28;20048;-65
2020/12/11 03:19:10;;;;;;;22.35;11.65;;;-0.20;87.20;;;;;;5056627;28;20031;-66
2020/12/11 03:21:35;;;;;;;19.35;10.52;;;-0.30;87.10;;;;;;5056301;28;20467;-66
2020/12/11 03:24:01;;;;;;;22.35;11.70;;;-0.30;87.20;;;;;;5055394;28;20481;-66
2020/12/11 03:26:27;;;;;;;19.17;9.63;;;-0.30;87.30;;;;;;5056367;28;20356;-66
2020/12/11 03:28:53;;;;;;;29.10;11.65;;;-0.30;87.30;;;;;;5055924;28;20467;-67
2020/12/11 03:31:19;;;;;;;25.20;13.20;;;-0.40;87.20;;;;;;5056342;28;20069;-66
2020/12/11 03:33:47;;;;;;;23.77;12.68;;;-0.40;87.20;;;;;;5056183;28;20496;-65
2020/12/11 03:36:18;;;;;;;22.25;11.95;;;-0.40;87.40;;;;;;5056725;28;20103;-66
2020/12/11 03:38:44;;;;;;;24.70;12.65;;;-0.40;87.50;;;;;;5055780;28;20517;-66
2020/12/11 03:41:14;;;;;;;27.42;11.00;;;-0.40;87.50;;;;;;5056127;28;20025;-65
2020/12/11 03:43:40;;;;;;;24.48;12.15;;;-0.40;87.50;;;;;;5054788;28;20037;-66
2020/12/11 03:46:06;;;;;;;23.20;11.55;;;-0.40;87.60;;;;;;5054982;28;20095;-66
2020/12/11 03:48:31;;;;;;;29.15;13.10;;;-0.40;87.60;;;;;;5056062;28;20104;-66
2020/12/11 03:50:59;;;;;;;21.70;10.70;;;-0.40;87.60;;;;;;5055572;28;20017;-66
2020/12/11 03:53:25;;;;;;;24.83;10.88;;;-0.40;87.60;;;;;;5055743;28;20116;-66
2020/12/11 03:55:51;;;;;;;24.48;11.38;;;-0.40;87.70;;;;;;5053949;28;20056;-66
2020/12/11 03:58:17;;;;;;;24.63;11.93;;;-0.40;87.70;;;;;;5055934;28;20017;-65
2020/12/11 04:00:43;;;;;;;26.13;11.07;;;-0.40;87.70;;;;;;5055086;28;20025;-66
2020/12/11 04:03:08;;;;;;;25.77;12.77;;;-0.40;87.80;;;;;;5055384;28;20041;-66
2020/12/11 04:05:34;;;;;;;27.52;13.55;;;-0.40;87.80;;;;;;5056036;28;20094;-66
2020/12/11 04:08:00;;;;;;;24.15;11.68;;;-0.50;87.80;;;;;;5055569;28;20032;-65
2020/12/11 04:10:25;;;;;;;25.55;12.80;;;-0.40;87.80;;;;;;5054209;28;20032;-67
2020/12/11 04:12:51;;;;;;;28.65;13.82;;;-0.50;87.80;;;;;;5055160;28;20451;-66
2020/12/11 04:15:17;;;;;;;32.28;16.05;;;-0.40;88.00;;;;;;5054397;28;20029;-66
2020/12/11 04:17:43;;;;;;;31.83;15.90;;;-0.40;88.10;;;;;;5053793;28;20434;-67
2020/12/11 04:20:08;;;;;;;38.88;16.05;;;-0.40;88.20;;;;;;5054224;28;20017;-67
2020/12/11 04:22:34;;;;;;;31.95;15.65;;;-0.40;88.30;;;;;;5055202;28;20036;-67
2020/12/11 04:25:00;;;;;;;41.20;18.95;;;-0.40;88.20;;;;;;5054639;28;20459;-69
2020/12/11 04:27:26;;;;;;;30.85;15.07;;;-0.40;88.20;;;;;;5053707;28;20119;-66
2020/12/11 04:29:51;;;;;;;34.83;15.30;;;-0.30;88.20;;;;;;5054817;28;20024;-66
2020/12/11 04:32:17;;;;;;;29.95;13.00;;;-0.30;88.10;;;;;;5053637;28;20083;-68
2020/12/11 04:34:43;;;;;;;32.08;15.68;;;-0.30;88.10;;;;;;5055009;28;20060;-67
2020/12/11 04:37:09;;;;;;;35.90;16.15;;;-0.30;87.70;;;;;;5054724;28;20017;-67
2020/12/11 04:39:35;;;;;;;45.47;18.85;;;-0.40;87.70;;;;;;5053685;28;20106;-69
2020/12/11 04:42:02;;;;;;;23.13;11.20;;;-0.40;87.70;;;;;;5054565;28;20470;-67
2020/12/11 04:44:27;;;;;;;28.92;13.25;;;-0.40;87.70;;;;;;5054792;28;20029;-67
2020/12/11 04:46:53;;;;;;;27.38;13.98;;;-0.40;87.80;;;;;;5054510;28;20031;-66
2020/12/11 04:49:19;;;;;;;37.13;14.82;;;-0.50;87.70;;;;;;5054619;28;20360;-67
2020/12/11 04:51:49;;;;;;;28.50;13.95;;;-0.50;87.70;;;;;;5053341;28;20071;-67
2020/12/11 04:54:18;;;;;;;27.40;14.18;;;-0.50;87.70;;;;;;5054382;28;20033;-67
2020/12/11 04:56:50;;;;;;;27.35;13.02;;;-0.50;87.70;;;;;;5054474;28;20182;-67
2020/12/11 04:59:17;;;;;;;37.22;16.25;;;-0.50;87.60;;;;;;5054452;28;20421;-68
2020/12/11 05:01:43;;;;;;;33.92;13.90;;;-0.60;87.50;;;;;;5053384;28;20082;-68
2020/12/11 05:04:09;;;;;;;33.53;13.73;;;-0.60;87.50;;;;;;5054064;28;20475;-67
2020/12/11 05:06:35;;;;;;;27.30;11.50;;;-0.60;87.50;;;;;;5052981;28;20400;-67
2020/12/11 05:09:16;;;;;;;29.45;12.82;;;-0.70;87.50;;;;;;5054169;28;20025;-67
2020/12/11 05:11:44;;;;;;;32.65;15.52;;;-0.70;87.60;;;;;;5041576;28;20036;-67
2020/12/11 05:14:33;;;;;;;26.63;12.88;;;-0.80;87.60;;;;;;5054181;28;20032;-67
2020/12/11 05:17:07;;;;;;;33.10;15.23;;;-0.80;87.60;;;;;;5054019;28;20094;-67
2020/12/11 05:19:47;;;;;;;28.58;14.25;;;-0.90;87.60;;;;;;5054014;28;20029;-67
2020/12/11 05:22:13;;;;;;;34.42;14.15;;;-0.90;87.80;;;;;;5054092;28;20020;-67
2020/12/11 05:24:46;;;;;;;31.42;14.57;;;-0.90;87.80;;;;;;5053731;28;20031;-68
2020/12/11 05:27:24;;;;;;;30.55;14.23;;;-0.90;87.90;;;;;;5053960;28;20467;-67
2020/12/11 05:29:51;;;;;;;29.88;12.73;;;-0.90;88.10;;;;;;5053615;28;20110;-68
2020/12/11 05:32:17;;;;;;;47.17;19.65;;;-0.90;88.10;;;;;;5053846;28;20031;-67
2020/12/11 05:34:46;;;;;;;35.83;14.90;;;-0.90;88.10;;;;;;5053766;28;20033;-66
2020/12/11 05:37:11;;;;;;;29.73;12.52;;;-1.00;88.10;;;;;;5053323;28;20044;-66
2020/12/11 05:39:37;;;;;;;38.00;15.13;;;-0.90;88.10;;;;;;5053672;28;20021;-66
2020/12/11 05:42:11;;;;;;;28.98;13.48;;;-1.00;88.00;;;;;;5053771;28;20029;-67
2020/12/11 05:44:36;;;;;;;30.85;13.73;;;-1.00;88.00;;;;;;5052422;28;20135;-67
2020/12/11 05:47:22;;;;;;;36.88;15.32;;;-1.00;88.00;;;;;;5053588;28;20056;-67
2020/12/11 05:49:47;;;;;;;29.27;12.80;;;-1.00;88.10;;;;;;5052233;28;20029;-66
2020/12/11 05:52:18;;;;;;;25.77;11.82;;;-1.00;88.00;;;;;;5053213;28;20040;-68
2020/12/11 05:54:48;;;;;;;28.42;11.40;;;-1.10;87.60;;;;;;5051020;28;20029;-68
2020/12/11 05:57:16;;;;;;;30.85;14.13;;;-1.10;87.50;;;;;;5043916;28;20025;-67
2020/12/11 05:59:43;;;;;;;34.53;15.00;;;-1.20;87.50;;;;;;5053237;28;20104;-67
2020/12/11 06:02:11;;;;;;;26.55;13.52;;;-1.20;87.80;;;;;;5053347;28;20017;-67
2020/12/11 06:04:37;;;;;;;28.30;14.52;;;-1.20;87.90;;;;;;5042118;28;20029;-68
2020/12/11 06:07:10;;;;;;;31.98;12.02;;;-1.20;87.90;;;;;;5044211;28;20028;-67
2020/12/11 06:09:37;;;;;;;30.25;13.55;;;-1.20;88.00;;;;;;5060480;28;20025;-67
2020/12/11 06:12:05;;;;;;;36.38;14.38;;;-1.20;88.10;;;;;;5040662;28;20037;-67
2020/12/11 06:14:46;;;;;;;41.38;16.70;;;-1.20;88.20;;;;;;5040283;28;20050;-68
2020/12/11 06:17:14;;;;;;;36.85;16.90;;;-1.20;88.30;;;;;;5049698;28;20439;-68
2020/12/11 06:19:44;;;;;;;28.75;13.35;;;-1.20;88.20;;;;;;5037789;28;20025;-68
2020/12/11 06:22:11;;;;;;;32.92;15.02;;;-1.10;88.20;;;;;;5038131;28;20033;-67
2020/12/11 06:24:37;;;;;;;38.15;16.95;;;-1.20;87.90;;;;;;5048307;28;20025;-68
2020/12/11 06:27:04;;;;;;;42.25;19.10;;;-1.10;88.00;;;;;;5045769;28;20034;-67
2020/12/11 06:29:40;;;;;;;32.75;15.52;;;-1.10;88.20;;;;;;5035151;28;20068;-73
2020/12/11 06:32:07;;;;;;;34.58;15.77;;;-1.20;88.20;;;;;;5046015;28;20447;-67
2020/12/11 06:34:42;;;;;;;31.60;15.25;;;-1.10;88.30;;;;;;5045116;28;20104;-70
2020/12/11 06:37:09;;;;;;;26.13;12.25;;;-1.10;88.30;;;;;;5040844;28;20025;-67
2020/12/11 06:39:42;;;;;;;35.83;16.85;;;-1.10;88.00;;;;;;5049753;28;20033;-68
2020/12/11 06:42:09;;;;;;;32.35;15.70;;;-1.20;87.80;;;;;;5039230;28;20025;-69
2020/12/11 06:44:35;;;;;;;32.42;15.77;;;-1.20;87.90;;;;;;5046470;28;20074;-69
2020/12/11 06:47:09;;;;;;;29.23;13.27;;;-1.10;87.90;;;;;;5043353;28;20033;-67
2020/12/11 06:49:37;;;;;;;28.13;12.90;;;-1.20;87.80;;;;;;5034609;28;20400;-68
2020/12/11 06:52:02;;;;;;;45.70;17.58;;;-1.20;87.30;;;;;;5042762;28;20033;-66
2020/12/11 06:54:28;;;;;;;33.28;14.63;;;-1.20;87.40;;;;;;5040783;28;20029;-70
2020/12/11 06:56:58;;;;;;;27.58;12.73;;;-1.20;87.40;;;;;;5042457;28;20027;-67
2020/12/11 06:59:25;;;;;;;28.48;12.90;;;-1.30;87.10;;;;;;5037328;28;20029;-67
2020/12/11 07:01:52;;;;;;;52.65;23.15;;;-1.30;87.20;;;;;;5041436;28;20021;-67
2020/12/11 07:04:18;;;;;;;30.50;13.90;;;-1.30;87.40;;;;;;5034262;28;20442;-67
2020/12/11 07:06:51;;;;;;;33.72;17.35;;;-1.40;87.40;;;;;;5041120;28;20128;-68
2020/12/11 07:09:17;;;;;;;39.90;18.05;;;-1.40;87.50;;;;;;5045303;28;20025;-68
2020/12/11 07:11:45;;;;;;;43.95;19.17;;;-1.40;87.60;;;;;;5041489;28;20025;-77
2020/12/11 07:14:12;;;;;;;37.50;16.73;;;-1.40;87.90;;;;;;5050615;28;20444;-68
2020/12/11 07:16:56;;;;;;;27.63;12.68;;;-1.30;87.80;;;;;;5052116;28;20021;-67
2020/12/11 07:19:22;;;;;;;42.50;19.67;;;-1.40;87.50;;;;;;5046259;28;20096;-67
2020/12/11 07:25:23;;;;;;;32.00;14.60;;;-1.40;87.70;;;;;;5042196;28;20103;-68
2020/12/11 07:28:02;;;;;;;32.83;18.58;;;-1.40;87.60;;;;;;5043664;28;20042;-68
2020/12/11 07:30:29;;;;;;;37.83;16.55;;;-1.40;87.60;;;;;;5041512;28;20475;-71
2020/12/11 07:32:55;;;;;;;33.90;15.82;;;-1.40;87.50;;;;;;5038095;28;20128;-67
2020/12/11 07:35:22;;;;;;;42.45;19.45;;;-1.50;87.50;;;;;;5044535;28;20022;-68
2020/12/11 07:37:52;;;;;;;29.08;14.20;;;-1.50;87.70;;;;;;5045493;28;20017;-67
2020/12/11 07:40:19;;;;;;;33.97;16.10;;;-1.40;87.60;;;;;;5041598;28;20018;-66
2020/12/11 07:42:50;;;;;;;44.45;17.77;;;-1.40;87.60;;;;;;5044931;28;20067;-66
2020/12/11 07:45:32;;;;;;;37.95;18.30;;;-1.40;87.60;;;;;;5045095;28;20017;-68
2020/12/11 07:47:58;;;;;;;35.15;15.93;;;-1.50;87.50;;;;;;5054151;28;20356;-68
2020/12/11 07:50:27;;;;;;;39.50;17.95;;;-1.40;87.70;;;;;;5048493;28;20041;-67
2020/12/11 07:52:54;;;;;;;56.72;21.67;;;-1.50;87.40;;;;;;5046366;28;20033;-67
2020/12/11 07:55:22;;;;;;;45.15;19.90;;;-1.50;87.10;;;;;;5044750;28;20025;-67
2020/12/11 07:57:58;;;;;;;57.70;24.15;;;-1.50;87.10;;;;;;5041829;28;20021;-68
2020/12/11 08:00:25;;;;;;;41.25;18.67;;;-1.50;87.30;;;;;;5042677;28;20030;-68
2020/12/11 08:03:06;;;;;;;53.47;25.58;;;-1.50;87.50;;;;;;5043029;28;20062;-68
2020/12/11 08:05:36;;;;;;;44.60;19.60;;;-1.50;87.30;;;;;;5044733;28;20033;-68
2020/12/11 08:08:03;;;;;;;41.75;17.02;;;-1.50;87.20;;;;;;5047285;28;20020;-68
2020/12/11 08:10:41;;;;;;;50.28;23.33;;;-1.50;87.10;;;;;;5043777;28;20040;-68
2020/12/11 08:13:08;;;;;;;29.60;13.55;;;-1.60;87.20;;;;;;5047944;28;20052;-68
2020/12/11 08:15:36;;;;;;;33.10;16.13;;;-1.60;87.10;;;;;;5034300;28;20044;-68
2020/12/11 08:18:22;;;;;;;45.45;21.58;;;-1.60;87.20;;;;;;5048532;28;20021;-69
2020/12/11 08:21:00;;;;;;;33.03;18.52;;;-1.50;87.70;;;;;;5034388;28;20025;-68
2020/12/11 08:23:40;;;;;;;40.17;18.25;;;-1.50;87.80;;;;;;5033425;28;20037;-68
2020/12/11 08:26:09;;;;;;;50.58;23.23;;;-1.50;87.50;;;;;;5044112;28;20559;-70
2020/12/11 08:28:36;;;;;;;33.08;15.55;;;-1.50;87.20;;;;;;5047770;28;20107;-75
2020/12/11 08:31:37;;;;;;;37.70;16.63;;;-1.50;87.30;;;;;;5046486;28;20025;-68
2020/12/11 08:34:13;;;;;;;43.90;22.35;;;-1.50;87.10;;;;;;5038107;28;20121;-67
2020/12/11 08:36:41;;;;;;;39.13;18.08;;;-1.50;87.10;;;;;;5049776;28;20040;-69
2020/12/11 08:39:08;;;;;;;36.10;15.90;;;-1.60;87.10;;;;;;5040126;28;20470;-68
2020/12/11 08:41:38;;;;;;;35.65;16.15;;;-1.60;87.00;;;;;;5045693;28;20035;-69
2020/12/11 08:44:08;;;;;;;35.70;17.85;;;-1.60;86.80;;;;;;5042409;28;20021;-69
2020/12/11 08:46:58;;;;;;;39.13;17.92;;;-1.70;86.80;;;;;;5045004;28;20034;-74
2020/12/11 08:49:46;;;;;;;41.35;18.27;;;-1.70;87.00;;;;;;5035741;28;20488;-70
2020/12/11 08:52:25;;;;;;;40.10;18.63;;;-1.70;87.40;;;;;;5050678;28;20383;-72
2020/12/11 08:54:53;;;;;;;43.97;19.25;;;-1.70;87.30;;;;;;5050157;28;20113;-69
2020/12/11 08:57:18;;;;;;;40.80;16.35;;;-1.70;87.20;;;;;;5043700;28;20043;-69
2020/12/11 08:59:44;;;;;;;65.78;24.08;;;-1.70;87.40;;;;;;5053704;28;20353;-69
2020/12/11 09:02:10;;;;;;;44.33;19.38;;;-1.70;87.30;;;;;;5051317;28;20111;-69
2020/12/11 09:04:36;;;;;;;41.83;17.48;;;-1.60;87.50;;;;;;5051014;28;20033;-69
2020/12/11 09:07:02;;;;;;;38.08;17.30;;;-1.60;87.50;;;;;;5053576;28;20379;-69
2020/12/11 09:09:28;;;;;;;29.15;14.23;;;-1.60;87.40;;;;;;5049703;28;20020;-69
2020/12/11 09:11:53;;;;;;;31.20;15.05;;;-1.60;87.30;;;;;;5051327;28;20032;-69
2020/12/11 09:14:19;;;;;;;33.78;18.10;;;-1.60;87.10;;;;;;5049801;28;20464;-69
2020/12/11 09:16:45;;;;;;;41.47;18.95;;;-1.70;87.10;;;;;;5051954;28;20387;-70
2020/12/11 09:19:11;;;;;;;36.50;16.30;;;-1.70;87.40;;;;;;5050671;28;20032;-69
2020/12/11 09:21:37;;;;;;;35.95;17.30;;;-1.60;87.70;;;;;;5049841;28;20033;-69
2020/12/11 09:24:03;;;;;;;61.03;24.65;;;-1.60;87.50;;;;;;5042236;28;20045;-69
2020/12/11 09:26:31;;;;;;;33.80;17.13;;;-1.60;87.30;;;;;;5042718;28;20076;-69
2020/12/11 09:29:12;;;;;;;73.28;28.73;;;-1.60;87.30;;;;;;5049449;28;20014;-68
2020/12/11 09:31:41;;;;;;;48.58;22.10;;;-1.60;87.30;;;;;;5049243;28;20037;-69
2020/12/11 09:34:13;;;;;;;59.22;29.58;;;-1.60;87.40;;;;;;5042611;28;20139;-68
2020/12/11 09:36:43;;;;;;;45.75;20.55;;;-1.60;87.40;;;;;;5050725;28;20486;-69
2020/12/11 09:39:09;;;;;;;39.22;20.83;;;-1.60;87.50;;;;;;5050906;28;20057;-67
2020/12/11 09:41:40;;;;;;;31.00;14.27;;;-1.60;87.60;;;;;;5050901;28;20037;-68
2020/12/11 09:44:53;;;;;;;39.53;18.67;;;-1.60;87.50;;;;;;5050822;28;20025;-68
2020/12/11 09:54:56;;;;;;;31.27;16.05;;;-1.60;87.10;;;;;;5049238;28;20025;-69
2020/12/11 09:57:21;;;;;;;26.75;13.43;;;-1.60;87.50;;;;;;5046174;28;20485;-69
2020/12/11 09:59:53;;;;;;;50.60;24.92;;;-1.60;87.50;;;;;;5051963;28;20538;-73
2020/12/11 10:04:53;;;;;;;32.42;16.50;;;-1.50;87.80;;;;;;5043817;28;20205;-69
2020/12/11 10:07:19;;;;;;;56.75;25.33;;;-1.50;87.70;;;;;;5036162;28;20717;-70
2020/12/11 10:09:45;;;;;;;49.00;24.67;;;-1.50;87.70;;;;;;5036807;28;20364;-69
2020/12/11 10:12:11;;;;;;;53.53;26.77;;;-1.50;87.40;;;;;;5036241;28;20383;-69
2020/12/11 10:14:47;;;;;;;36.92;16.83;;;-1.50;87.40;;;;;;5049679;28;20364;-69
2020/12/11 10:17:14;;;;;;;41.35;19.23;;;-1.50;87.60;;;;;;5042126;28;20029;-70
2020/12/11 10:19:40;;;;;;;37.22;17.55;;;-1.40;87.60;;;;;;5043060;28;20082;-69
2020/12/11 10:22:05;;;;;;;32.03;14.95;;;-1.40;87.70;;;;;;5050925;28;20429;-73
2020/12/11 10:24:31;;;;;;;44.25;21.05;;;-1.40;87.50;;;;;;5052255;28;20052;-69
2020/12/11 10:26:57;;;;;;;42.95;20.25;;;-1.40;87.50;;;;;;5051362;28;20099;-69
2020/12/11 10:29:22;;;;;;;47.67;24.33;;;-1.40;87.50;;;;;;5052254;28;20029;-70
2020/12/11 10:31:48;;;;;;;39.90;19.70;;;-1.40;87.70;;;;;;5064461;28;20029;-68
2020/12/11 10:34:16;;;;;;;57.45;29.30;;;-1.40;87.40;;;;;;5051058;28;20033;-68
2020/12/11 10:36:42;;;;;;;38.78;22.00;;;-1.40;87.60;;;;;;5049581;28;20025;-69
2020/12/11 10:39:09;;;;;;;31.40;16.95;;;-1.30;87.70;;;;;;5052282;28;20056;-69
2020/12/11 10:41:36;;;;;;;42.60;21.20;;;-1.30;87.40;;;;;;5050807;28;20387;-68
2020/12/11 10:44:02;;;;;;;43.65;20.15;;;-1.40;87.10;;;;;;5052058;28;20029;-68
2020/12/11 10:46:28;;;;;;;45.08;23.17;;;-1.40;87.00;;;;;;5037579;28;20034;-68
2020/12/11 10:48:54;;;;;;;32.67;16.48;;;-1.40;87.70;;;;;;5039117;28;20029;-67
2020/12/11 10:51:20;;;;;;;40.72;18.83;;;-1.40;87.10;;;;;;5035186;28;20360;-68
2020/12/11 10:53:47;;;;;;;44.05;18.98;;;-1.50;87.00;;;;;;5042776;28;20495;-69
2020/12/11 10:56:14;;;;;;;35.25;17.65;;;-1.50;86.90;;;;;;5032489;28;20044;-67
2020/12/11 10:58:40;;;;;;;41.95;19.30;;;-1.50;87.00;;;;;;5036888;28;20029;-68
2020/12/11 11:01:07;;;;;;;39.70;18.15;;;-1.50;87.30;;;;;;5033633;28;20080;-69
2020/12/11 11:03:34;;;;;;;38.53;19.90;;;-1.50;87.50;;;;;;5038505;28;20049;-69
2020/12/11 11:06:09;;;;;;;48.65;21.88;;;-1.40;87.70;;;;;;5032520;28;20018;-67
2020/12/11 11:11:10;;;;;;;42.30;20.98;;;-1.40;87.60;;;;;;5033263;28;20029;-68
2020/12/11 11:16:07;;;;;;;42.88;19.73;;;-1.40;87.60;;;;;;5038578;28;20066;-68
2020/12/11 11:18:44;;;;;;;33.67;15.23;;;-1.30;87.70;;;;;;5049289;28;20431;-68
2020/12/11 11:26:45;;;;;;;57.95;24.08;;;-1.30;87.50;;;;;;5051578;28;20025;-66
2020/12/11 11:29:10;;;;;;;46.78;19.60;;;-1.30;87.50;;;;;;5048954;28;20479;-66
2020/12/11 11:31:36;;;;;;;35.80;18.63;;;-1.40;87.50;;;;;;5036009;28;20029;-68
2020/12/11 11:34:04;;;;;;;37.10;17.27;;;-1.40;87.60;;;;;;5036005;28;20032;-66
2020/12/11 11:36:31;;;;;;;29.25;14.27;;;-1.30;87.80;;;;;;5043983;28;20485;-68
2020/12/11 11:38:57;;;;;;;38.13;18.17;;;-1.30;87.80;;;;;;5040259;28;20029;-69
2020/12/11 11:46:33;;;;;;;37.03;18.15;;;-1.20;88.30;;;;;;5042964;28;20463;-67
2020/12/11 11:48:58;;;;;;;39.28;17.15;;;-1.10;88.30;;;;;;5039197;28;20037;-68
2020/12/11 11:51:35;;;;;;;37.00;18.38;;;-1.10;88.00;;;;;;5047447;28;20033;-68
2020/12/11 11:54:01;;;;;;;33.00;16.67;;;-1.10;87.90;;;;;;5041578;28;20047;-67
2020/12/11 11:56:26;;;;;;;41.05;20.42;;;-1.10;88.00;;;;;;5044846;28;20101;-67
2020/12/11 11:58:52;;;;;;;44.50;22.33;;;-1.10;88.00;;;;;;5047484;28;20463;-68
2020/12/11 12:01:18;;;;;;;45.05;22.92;;;-1.10;87.90;;;;;;5044011;28;20033;-68
2020/12/11 12:03:44;;;;;;;45.97;20.52;;;-1.00;88.20;;;;;;5011578;28;927812;-68
2020/12/11 12:06:09;;;;;;;30.73;16.40;;;-1.00;88.30;;;;;;5050621;28;20096;-68
2020/12/11 12:08:36;;;;;;;38.63;17.77;;;-1.00;88.10;;;;;;5047969;28;20025;-72
2020/12/11 12:11:01;;;;;;;36.05;17.67;;;-0.90;88.10;;;;;;5043555;28;20450;-68
2020/12/11 12:13:27;;;;;;;27.95;14.80;;;-0.90;88.10;;;;;;5046509;28;20104;-67
2020/12/11 12:15:55;;;;;;;46.50;22.42;;;-0.90;88.00;;;;;;5041645;28;20419;-68
2020/12/11 12:18:21;;;;;;;35.00;17.27;;;-0.90;87.90;;;;;;5046160;28;20112;-67
2020/12/11 12:20:55;;;;;;;36.85;17.33;;;-0.90;87.80;;;;;;5045372;28;20104;-68
2020/12/11 12:30:58;;;;;;;37.03;16.40;;;-0.70;87.50;;;;;;5045621;28;20061;-68
2020/12/11 12:39:00;;;;;;;29.23;15.10;;;-0.60;87.20;;;;;;5045639;28;20379;-68
2020/12/11 12:43:59;;;;;;;42.50;21.08;;;-0.60;87.00;;;;;;5048224;28;20472;-68
2020/12/11 12:46:26;;;;;;;41.85;19.90;;;-0.60;87.00;;;;;;5052445;28;20100;-68
2020/12/11 12:48:51;;;;;;;48.80;19.95;;;-0.60;87.00;;;;;;5045120;28;20025;-67
2020/12/11 12:51:17;;;;;;;50.17;24.33;;;-0.60;87.00;;;;;;5043984;28;20033;-67
2020/12/11 12:53:43;;;;;;;42.53;18.92;;;-0.60;87.00;;;;;;5041050;28;20079;-67
2020/12/11 12:59:55;;;;;;;63.45;23.20;;;-0.60;87.10;;;;;;5039620;28;20470;-67
2020/12/11 13:07:20;;;;;;;101.25;42.33;;;-0.60;87.00;;;;;;5052135;28;20025;-69
2020/12/11 13:09:46;;;;;;;66.60;30.75;;;-0.50;87.10;;;;;;5054270;28;20021;-67
2020/12/11 13:12:11;;;;;;;26.77;13.85;;;-0.50;87.10;;;;;;5052779;28;20033;-67
2020/12/11 13:14:37;;;;;;;29.92;15.38;;;-0.50;87.10;;;;;;5054141;28;20113;-67
2020/12/11 13:17:04;;;;;;;28.13;12.57;;;-0.50;87.10;;;;;;5054295;28;20104;-68
2020/12/11 13:19:32;;;;;;;27.70;13.07;;;-0.50;87.10;;;;;;5053304;28;20033;-69
2020/12/11 13:27:16;;;;;;;31.77;15.68;;;-0.50;86.90;;;;;;5053938;28;20028;-67
2020/12/11 13:29:42;;;;;;;31.45;15.90;;;-0.50;86.90;;;;;;5053154;28;20025;-67
2020/12/11 13:32:08;;;;;;;28.20;14.77;;;-0.50;86.90;;;;;;5053922;28;20482;-68
2020/12/11 13:34:33;;;;;;;26.42;13.63;;;-0.50;87.00;;;;;;5052846;28;20031;-68
2020/12/11 13:36:59;;;;;;;26.75;13.65;;;-0.50;87.00;;;;;;5053381;28;20487;-68
2020/12/11 13:39:25;;;;;;;24.42;12.55;;;-0.50;87.00;;;;;;5053271;28;20035;-67
2020/12/11 13:41:50;;;;;;;31.38;15.43;;;-0.50;86.90;;;;;;5053845;28;20036;-66
2020/12/11 13:44:16;;;;;;;72.90;31.90;;;-0.50;86.90;;;;;;5042050;28;20096;-66
2020/12/11 13:46:43;;;;;;;117.97;46.70;;;-0.50;86.90;;;;;;5046242;28;20021;-66